createdAt,value
2023-02-22T00:02:51.161Z,64.58
2023-02-22T00:06:24.394Z,64.62
2023-02-22T00:09:24.219Z,64.60
2023-02-22T00:12:29.788Z,64.80
2023-02-22T00:15:28.750Z,65.06
2023-02-22T00:18:41.612Z,64.97
2023-02-22T00:21:47.101Z,65.24
2023-02-22T00:24:38.050Z,65.16
2023-02-22T00:27:23.292Z,65.26
2023-02-22T00:30:16.775Z,65.21
2023-02-22T00:33:33.354Z,65.30
2023-02-22T00:37:08.661Z,65.49
2023-02-22T00:41:07.712Z,65.57
2023-02-22T00:44:20.165Z,65.80
2023-02-22T00:47:08.686Z,65.63
2023-02-22T00:50:07.657Z,65.81
2023-02-22T00:52:59.788Z,65.92
2023-02-22T00:56:26.189Z,66.22
2023-02-22T00:59:13.290Z,66.34
2023-02-22T01:02:01.284Z,66.37
2023-02-22T01:04:54.716Z,66.44
2023-02-22T01:07:55.966Z,66.58
2023-02-22T01:11:12.941Z,66.86
2023-02-22T01:14:09.802Z,67.00
2023-02-22T01:17:10.433Z,67.04
2023-02-22T01:22:30.144Z,67.03
2023-02-22T01:23:03.797Z,67.31
2023-02-22T01:25:50.795Z,67.41
2023-02-22T01:29:10.462Z,67.48
2023-02-22T01:32:24.027Z,67.55
2023-02-22T01:35:23.555Z,67.56
2023-02-22T01:38:07.483Z,67.52
2023-02-22T01:44:24.750Z,67.50
2023-02-22T01:47:32.551Z,67.67
2023-02-22T01:50:53.069Z,67.79
2023-02-22T01:54:19.006Z,68.06
2023-02-22T01:57:32.518Z,68.19
2023-02-22T02:00:19.788Z,68.13
2023-02-22T02:03:41.452Z,68.26
2023-02-22T02:06:44.767Z,68.32
2023-02-22T02:10:10.099Z,68.24
2023-02-22T02:13:15.263Z,68.47
2023-02-22T02:16:05.928Z,68.67
2023-02-22T02:19:02.322Z,68.66
2023-02-22T02:22:41.047Z,68.82
2023-02-22T02:26:35.859Z,68.91
2023-02-22T02:29:39.114Z,68.94
2023-02-22T02:32:52.232Z,69.06
2023-02-22T02:35:48.605Z,69.15
2023-02-22T02:38:54.433Z,69.33
2023-02-22T02:41:33.813Z,69.37
2023-02-22T02:44:12.561Z,69.39
2023-02-22T02:47:00.470Z,69.38
2023-02-22T02:49:46.966Z,69.54
2023-02-22T02:52:18.212Z,69.80
2023-02-22T02:54:51.617Z,69.90
2023-02-22T02:57:52.893Z,69.87
2023-02-22T03:00:54.685Z,69.91
2023-02-22T03:04:15.182Z,70.00
2023-02-22T03:07:24.787Z,70.07
2023-02-22T03:10:54.992Z,70.07
2023-02-22T03:13:52.045Z,69.97
2023-02-22T03:16:29.443Z,69.94
2023-02-22T03:19:56.101Z,69.89
2023-02-22T03:23:23.734Z,70.12
2023-02-22T03:26:44.605Z,70.07
2023-02-22T03:30:17.544Z,70.18
2023-02-22T03:33:35.987Z,70.35
2023-02-22T03:37:14.234Z,70.17
2023-02-22T03:47:30.816Z,70.58
2023-02-22T03:51:15.566Z,70.57
2023-02-22T03:54:30.402Z,70.78
2023-02-22T03:57:29.768Z,70.75
2023-02-22T04:00:33.419Z,70.76
2023-02-22T04:03:42.905Z,70.70
2023-02-22T04:07:21.839Z,70.75
2023-02-22T04:10:26.012Z,70.93
2023-02-22T04:13:07.360Z,70.87
2023-02-22T04:15:40.283Z,70.86
2023-02-22T04:18:13.781Z,70.90
2023-02-22T04:20:44.379Z,70.86
2023-02-22T04:23:34.387Z,71.07
2023-02-22T04:26:25.853Z,71.08
2023-02-22T04:29:41.101Z,71.09
2023-02-22T04:33:15.320Z,71.21
2023-02-22T04:37:27.937Z,71.37
2023-02-22T04:41:20.477Z,71.50
2023-02-22T04:43:57.663Z,71.52
2023-02-22T04:46:58.992Z,71.49
2023-02-22T04:49:47.850Z,71.50
2023-02-22T04:52:50.008Z,71.56
2023-02-22T04:56:24.008Z,71.49
2023-02-22T04:59:13.628Z,71.47
2023-02-22T05:02:17.747Z,71.45
2023-02-22T05:05:30.543Z,71.49
2023-02-22T05:08:13.070Z,71.46
2023-02-22T05:11:14.815Z,71.42
2023-02-22T05:17:15.860Z,71.29
2023-02-22T05:20:03.393Z,71.33
2023-02-22T05:23:07.858Z,71.44
2023-02-22T05:25:57.767Z,71.39
2023-02-22T05:29:16.464Z,71.33
2023-02-22T05:32:09.220Z,71.29
2023-02-22T05:38:46.387Z,71.34
2023-02-22T05:45:28.630Z,71.60
2023-02-22T05:48:46.660Z,71.74
2023-02-22T05:52:27.518Z,72.05
2023-02-22T05:55:20.136Z,72.31
2023-02-22T05:58:08.176Z,72.10
2023-02-22T06:04:54.112Z,72.20
2023-02-22T06:08:47.156Z,72.29
2023-02-22T06:11:49.948Z,72.50
2023-02-22T06:14:57.742Z,72.57
2023-02-22T06:18:36.272Z,72.55
2023-02-22T06:22:24.399Z,72.55
2023-02-22T06:25:58.610Z,72.56
2023-02-22T06:29:52.937Z,72.61
2023-02-22T06:33:51.164Z,72.65
2023-02-22T06:37:00.037Z,72.64
2023-02-22T06:40:05.284Z,72.75
2023-02-22T06:43:27.270Z,72.83
2023-02-22T06:56:29.922Z,72.97
2023-02-22T06:59:32.014Z,72.72
2023-02-22T07:02:48.570Z,72.51
2023-02-22T07:06:10.855Z,72.74
2023-02-22T07:09:20.050Z,72.55
2023-02-22T07:12:51.547Z,72.54
2023-02-22T07:19:48.770Z,71.44
2023-02-22T07:22:48.128Z,71.50
2023-02-22T07:26:19.872Z,71.46
2023-02-22T07:29:13.085Z,71.52
2023-02-22T07:32:20.905Z,71.39
2023-02-22T07:36:04.035Z,70.62
2023-02-22T07:38:32.590Z,70.19
2023-02-22T07:44:57.342Z,69.04
2023-02-22T07:48:17.285Z,68.46
2023-02-22T07:52:04.580Z,68.23
2023-02-22T07:55:06.747Z,68.36
2023-02-22T07:57:42.195Z,68.18
2023-02-22T08:00:50.422Z,68.30
2023-02-22T08:03:39.485Z,68.79
2023-02-22T08:06:57.093Z,68.98
2023-02-22T08:10:11.687Z,69.58
2023-02-22T08:13:01.771Z,69.74
2023-02-22T08:16:13.446Z,69.24
2023-02-22T08:19:34.207Z,68.42
2023-02-22T08:22:32.866Z,67.25
2023-02-22T08:26:35.052Z,67.02
2023-02-22T08:29:42.240Z,66.99
2023-02-22T08:33:07.010Z,66.69
2023-02-22T08:36:13.441Z,66.75
2023-02-22T08:39:35.376Z,66.70
2023-02-22T08:47:04.382Z,67.45
2023-02-22T08:49:57.484Z,67.26
2023-02-22T08:57:12.911Z,66.47
2023-02-22T09:05:56.210Z,65.45
2023-02-22T09:54:25.283Z,58.22
2023-02-22T10:36:16.899Z,61.60
2023-02-22T10:39:51.898Z,61.41
2023-02-22T10:52:52.235Z,60.62
2023-02-22T10:56:42.791Z,60.57
2023-02-22T11:00:40.594Z,60.37
2023-02-22T11:06:24.444Z,60.03
2023-02-22T11:09:00.592Z,60.39
2023-02-22T11:12:44.616Z,60.70
2023-02-22T11:15:52.440Z,60.17
2023-02-22T11:19:23.314Z,60.30
2023-02-22T11:36:53.786Z,59.83
2023-02-22T11:40:29.279Z,59.42
2023-02-22T11:43:22.800Z,59.10
2023-02-22T11:47:02.034Z,59.08
2023-02-22T11:51:20.235Z,58.75
2023-02-22T11:55:49.237Z,58.65
2023-02-22T11:59:29.447Z,58.73
2023-02-22T12:09:30.728Z,59.06
2023-02-22T12:13:07.875Z,59.62
2023-02-22T12:19:40.056Z,59.44
2023-02-22T12:44:17.882Z,57.61
2023-02-22T12:46:56.498Z,57.65
2023-02-22T12:50:30.890Z,57.72
2023-02-22T12:58:04.311Z,58.36
2023-02-22T13:01:06.607Z,58.37
2023-02-22T13:03:56.788Z,57.97
2023-02-22T13:07:36.834Z,57.41
2023-02-22T13:11:06.181Z,57.09
2023-02-22T13:14:58.944Z,57.19
2023-02-22T13:18:30.002Z,57.20
2023-02-22T13:32:17.821Z,56.74
2023-02-22T13:51:47.397Z,57.10
2023-02-22T13:55:02.808Z,57.28
2023-02-22T13:58:07.206Z,57.17
2023-02-22T14:01:15.054Z,57.05
2023-02-22T14:04:40.666Z,57.15
2023-02-22T14:08:00.163Z,57.17
2023-02-22T14:19:12.666Z,57.35
2023-02-22T14:22:11.443Z,57.14
2023-02-22T14:25:27.808Z,57.27
2023-02-22T14:29:29.673Z,57.22
2023-02-22T14:32:40.258Z,57.47
2023-02-22T14:36:27.307Z,57.50
2023-02-22T14:39:36.542Z,57.73
2023-02-22T14:42:49.697Z,57.82
2023-02-22T14:50:00.203Z,58.04
2023-02-22T14:53:04.679Z,58.06
2023-02-22T14:56:34.841Z,58.25
2023-02-22T15:00:47.162Z,58.49
2023-02-22T15:04:07.276Z,58.46
2023-02-22T15:08:28.723Z,58.35
2023-02-22T15:11:56.038Z,58.45
2023-02-22T15:19:17.491Z,58.43
2023-02-22T15:30:34.173Z,59.01
2023-02-22T15:34:27.861Z,59.19
2023-02-22T15:38:08.925Z,59.55
2023-02-22T15:45:51.935Z,59.63
2023-02-22T15:50:26.597Z,59.77
2023-02-22T15:53:33.032Z,59.92
2023-02-22T17:17:13.705Z,58.98
2023-02-22T17:24:56.985Z,60.63
2023-02-22T18:42:33.613Z,64.57
2023-02-22T18:50:43.230Z,64.63
2023-02-22T19:06:06.224Z,64.95
2023-02-22T19:13:16.557Z,65.23
2023-02-22T19:21:28.268Z,65.50
2023-02-22T19:24:52.392Z,65.46
2023-02-22T20:32:22.745Z,67.63
2023-02-22T20:35:20.989Z,67.81
2023-02-22T20:41:50.706Z,67.67
2023-02-22T21:21:14.764Z,64.27
2023-02-22T21:46:29.580Z,67.49
2023-02-22T22:03:34.774Z,68.11
2023-02-22T22:11:21.033Z,68.58
2023-02-22T22:14:37.681Z,68.64
2023-02-22T22:18:08.621Z,68.93
2023-02-22T22:21:34.070Z,68.93
2023-02-22T22:24:46.081Z,68.90
2023-02-22T22:27:56.022Z,68.88
2023-02-22T22:31:23.522Z,68.94
2023-02-22T22:34:29.331Z,69.05
2023-02-22T22:37:19.333Z,68.90
2023-02-22T22:40:52.322Z,68.99
2023-02-22T22:43:42.583Z,69.13
2023-02-22T22:46:31.125Z,69.21
2023-02-22T22:49:53.280Z,69.17
2023-02-22T22:52:44.511Z,69.12
2023-02-22T22:55:52.978Z,69.20
2023-02-22T22:58:48.886Z,68.99
2023-02-22T23:01:50.291Z,69.20
2023-02-22T23:04:50.903Z,69.20
2023-02-22T23:07:50.966Z,69.12
2023-02-22T23:11:32.534Z,69.29
2023-02-22T23:14:43.757Z,69.28
2023-02-22T23:17:44.147Z,69.38
2023-02-22T23:20:39.857Z,69.32
2023-02-22T23:23:55.646Z,69.24
2023-02-22T23:27:28.831Z,69.31
2023-02-22T23:30:34.873Z,69.40
2023-02-22T23:33:38.647Z,69.22
2023-02-22T23:36:36.735Z,69.36
2023-02-22T23:39:24.810Z,69.34
2023-02-22T23:42:25.465Z,69.33
2023-02-22T23:45:27.457Z,69.31
2023-02-22T23:48:26.227Z,69.32
2023-02-22T23:51:11.585Z,69.48
2023-02-22T23:54:13.885Z,69.35
2023-02-22T23:57:00.484Z,69.28
2023-02-22T23:59:41.451Z,69.29
